sensor_id;sensor_type;location;lat;lon;timestamp;P1;durP1;ratioP1;P2;durP2;ratioP2
16504;SDS011;8365;51.030;4.696;2023-06-10T00:02:03;11.50;;;10.45;;
16504;SDS011;8365;51.030;4.696;2023-06-10T00:04:34;11.23;;;10.32;;
16504;SDS011;8365;51.030;4.696;2023-06-10T00:07:06;11.57;;;10.38;;
16504;SDS011;8365;51.030;4.696;2023-06-10T00:09:38;10.93;;;9.88;;
16504;SDS011;8365;51.030;4.696;2023-06-10T00:12:09;11.20;;;10.18;;
16504;SDS011;8365;51.030;4.696;2023-06-10T00:14:40;10.68;;;9.88;;
16504;SDS011;8365;51.030;4.696;2023-06-10T00:17:13;11.07;;;10.20;;
16504;SDS011;8365;51.030;4.696;2023-06-10T00:19:45;11.20;;;10.23;;
16504;SDS011;8365;51.030;4.696;2023-06-10T00:22:16;11.48;;;10.57;;
16504;SDS011;8365;51.030;4.696;2023-06-10T00:24:47;11.70;;;10.57;;
16504;SDS011;8365;51.030;4.696;2023-06-10T00:27:17;10.60;;;9.80;;
16504;SDS011;8365;51.030;4.696;2023-06-10T00:29:48;12.02;;;11.02;;
16504;SDS011;8365;51.030;4.696;2023-06-10T00:32:18;11.60;;;10.50;;
16504;SDS011;8365;51.030;4.696;2023-06-10T00:34:49;11.45;;;10.40;;
16504;SDS011;8365;51.030;4.696;2023-06-10T00:37:20;11.25;;;10.25;;
16504;SDS011;8365;51.030;4.696;2023-06-10T00:39:50;11.75;;;10.65;;
16504;SDS011;8365;51.030;4.696;2023-06-10T00:42:24;11.95;;;10.73;;
16504;SDS011;8365;51.030;4.696;2023-06-10T00:44:55;11.80;;;10.70;;
16504;SDS011;8365;51.030;4.696;2023-06-10T00:47:26;11.32;;;10.43;;
16504;SDS011;8365;51.030;4.696;2023-06-10T00:49:57;14.48;;;11.02;;
16504;SDS011;8365;51.030;4.696;2023-06-10T00:52:28;12.02;;;10.80;;
16504;SDS011;8365;51.030;4.696;2023-06-10T00:55:01;11.88;;;10.75;;
16504;SDS011;8365;51.030;4.696;2023-06-10T00:57:32;11.63;;;10.60;;
16504;SDS011;8365;51.030;4.696;2023-06-10T01:00:04;12.43;;;11.27;;
16504;SDS011;8365;51.030;4.696;2023-06-10T01:02:38;11.77;;;10.77;;
16504;SDS011;8365;51.030;4.696;2023-06-10T01:05:08;11.98;;;11.00;;
16504;SDS011;8365;51.030;4.696;2023-06-10T01:07:40;12.25;;;11.25;;
16504;SDS011;8365;51.030;4.696;2023-06-10T01:10:20;12.98;;;11.88;;
16504;SDS011;8365;51.030;4.696;2023-06-10T01:13:13;12.65;;;11.43;;
16504;SDS011;8365;51.030;4.696;2023-06-10T01:15:45;12.23;;;11.10;;
16504;SDS011;8365;51.030;4.696;2023-06-10T01:18:16;12.30;;;11.30;;
16504;SDS011;8365;51.030;4.696;2023-06-10T01:20:47;12.30;;;11.07;;
16504;SDS011;8365;51.030;4.696;2023-06-10T01:23:18;12.55;;;11.35;;
16504;SDS011;8365;51.030;4.696;2023-06-10T01:25:50;13.32;;;11.57;;
16504;SDS011;8365;51.030;4.696;2023-06-10T01:28:41;12.82;;;11.60;;
16504;SDS011;8365;51.030;4.696;2023-06-10T01:33:53;13.13;;;12.02;;
16504;SDS011;8365;51.030;4.696;2023-06-10T01:36:25;13.15;;;11.95;;
16504;SDS011;8365;51.030;4.696;2023-06-10T01:38:56;13.07;;;11.82;;
16504;SDS011;8365;51.030;4.696;2023-06-10T01:41:29;12.52;;;11.43;;
16504;SDS011;8365;51.030;4.696;2023-06-10T01:44:03;13.23;;;12.05;;
16504;SDS011;8365;51.030;4.696;2023-06-10T01:46:34;13.30;;;12.10;;
16504;SDS011;8365;51.030;4.696;2023-06-10T01:49:04;13.32;;;12.15;;
16504;SDS011;8365;51.030;4.696;2023-06-10T01:51:35;14.02;;;12.75;;
16504;SDS011;8365;51.030;4.696;2023-06-10T01:54:08;14.50;;;12.93;;
16504;SDS011;8365;51.030;4.696;2023-06-10T01:56:39;13.48;;;12.32;;
16504;SDS011;8365;51.030;4.696;2023-06-10T01:59:09;13.15;;;12.02;;
16504;SDS011;8365;51.030;4.696;2023-06-10T02:01:40;13.40;;;12.07;;
16504;SDS011;8365;51.030;4.696;2023-06-10T02:04:10;13.48;;;12.38;;
16504;SDS011;8365;51.030;4.696;2023-06-10T02:06:41;14.05;;;12.73;;
16504;SDS011;8365;51.030;4.696;2023-06-10T02:09:11;13.75;;;12.45;;
16504;SDS011;8365;51.030;4.696;2023-06-10T02:11:42;14.13;;;12.98;;
16504;SDS011;8365;51.030;4.696;2023-06-10T02:14:12;13.32;;;12.23;;
16504;SDS011;8365;51.030;4.696;2023-06-10T02:16:45;13.80;;;12.60;;
16504;SDS011;8365;51.030;4.696;2023-06-10T02:19:16;13.73;;;12.52;;
16504;SDS011;8365;51.030;4.696;2023-06-10T02:21:47;14.27;;;12.95;;
16504;SDS011;8365;51.030;4.696;2023-06-10T02:24:18;14.82;;;13.50;;
16504;SDS011;8365;51.030;4.696;2023-06-10T02:26:48;15.57;;;14.07;;
16504;SDS011;8365;51.030;4.696;2023-06-10T02:29:19;15.00;;;13.55;;
16504;SDS011;8365;51.030;4.696;2023-06-10T02:31:50;14.02;;;12.80;;
16504;SDS011;8365;51.030;4.696;2023-06-10T02:34:22;15.68;;;14.02;;
16504;SDS011;8365;51.030;4.696;2023-06-10T02:36:53;15.15;;;13.75;;
16504;SDS011;8365;51.030;4.696;2023-06-10T02:39:23;15.45;;;13.98;;
16504;SDS011;8365;51.030;4.696;2023-06-10T02:41:54;16.05;;;14.57;;
16504;SDS011;8365;51.030;4.696;2023-06-10T02:44:24;15.30;;;13.90;;
16504;SDS011;8365;51.030;4.696;2023-06-10T02:46:55;14.20;;;13.00;;
16504;SDS011;8365;51.030;4.696;2023-06-10T02:49:25;15.07;;;13.73;;
16504;SDS011;8365;51.030;4.696;2023-06-10T02:51:59;15.63;;;14.23;;
16504;SDS011;8365;51.030;4.696;2023-06-10T02:54:29;15.85;;;14.45;;
16504;SDS011;8365;51.030;4.696;2023-06-10T02:57:00;16.27;;;14.60;;
16504;SDS011;8365;51.030;4.696;2023-06-10T02:59:30;15.68;;;14.32;;
16504;SDS011;8365;51.030;4.696;2023-06-10T03:02:03;15.25;;;14.00;;
16504;SDS011;8365;51.030;4.696;2023-06-10T03:04:34;15.00;;;13.73;;
16504;SDS011;8365;51.030;4.696;2023-06-10T03:07:04;16.08;;;14.48;;
16504;SDS011;8365;51.030;4.696;2023-06-10T03:09:37;15.45;;;14.07;;
16504;SDS011;8365;51.030;4.696;2023-06-10T03:12:07;15.23;;;13.82;;
16504;SDS011;8365;51.030;4.696;2023-06-10T03:14:38;16.98;;;15.38;;
16504;SDS011;8365;51.030;4.696;2023-06-10T03:17:09;17.20;;;14.43;;
16504;SDS011;8365;51.030;4.696;2023-06-10T03:19:39;16.30;;;14.73;;
16504;SDS011;8365;51.030;4.696;2023-06-10T03:22:10;15.63;;;14.20;;
16504;SDS011;8365;51.030;4.696;2023-06-10T03:24:42;15.25;;;13.95;;
16504;SDS011;8365;51.030;4.696;2023-06-10T03:27:13;15.93;;;14.25;;
16504;SDS011;8365;51.030;4.696;2023-06-10T03:29:45;16.75;;;14.98;;
16504;SDS011;8365;51.030;4.696;2023-06-10T03:32:15;16.08;;;14.57;;
16504;SDS011;8365;51.030;4.696;2023-06-10T03:34:45;15.90;;;14.40;;
16504;SDS011;8365;51.030;4.696;2023-06-10T03:37:17;15.90;;;14.50;;
16504;SDS011;8365;51.030;4.696;2023-06-10T03:39:48;16.83;;;15.23;;
16504;SDS011;8365;51.030;4.696;2023-06-10T03:42:18;16.98;;;15.40;;
16504;SDS011;8365;51.030;4.696;2023-06-10T03:44:48;16.52;;;15.02;;
16504;SDS011;8365;51.030;4.696;2023-06-10T03:47:19;17.17;;;15.40;;
16504;SDS011;8365;51.030;4.696;2023-06-10T03:49:49;18.20;;;16.23;;
16504;SDS011;8365;51.030;4.696;2023-06-10T03:52:20;17.50;;;15.73;;
16504;SDS011;8365;51.030;4.696;2023-06-10T03:54:50;16.98;;;15.48;;
16504;SDS011;8365;51.030;4.696;2023-06-10T03:57:21;16.38;;;14.95;;
16504;SDS011;8365;51.030;4.696;2023-06-10T03:59:51;16.33;;;15.02;;
16504;SDS011;8365;51.030;4.696;2023-06-10T04:02:22;17.10;;;15.50;;
16504;SDS011;8365;51.030;4.696;2023-06-10T04:04:53;16.73;;;15.20;;
16504;SDS011;8365;51.030;4.696;2023-06-10T04:07:23;16.60;;;15.30;;
16504;SDS011;8365;51.030;4.696;2023-06-10T04:09:54;16.20;;;14.82;;
16504;SDS011;8365;51.030;4.696;2023-06-10T04:12:24;16.27;;;14.88;;
16504;SDS011;8365;51.030;4.696;2023-06-10T04:14:55;15.48;;;14.13;;
16504;SDS011;8365;51.030;4.696;2023-06-10T04:17:25;16.55;;;14.98;;
16504;SDS011;8365;51.030;4.696;2023-06-10T04:19:57;16.02;;;14.63;;
16504;SDS011;8365;51.030;4.696;2023-06-10T04:22:30;16.17;;;14.75;;
16504;SDS011;8365;51.030;4.696;2023-06-10T04:25:01;16.13;;;14.63;;
16504;SDS011;8365;51.030;4.696;2023-06-10T04:27:32;17.10;;;15.60;;
16504;SDS011;8365;51.030;4.696;2023-06-10T04:30:03;16.17;;;14.82;;
16504;SDS011;8365;51.030;4.696;2023-06-10T04:32:34;16.08;;;14.57;;
16504;SDS011;8365;51.030;4.696;2023-06-10T04:35:04;15.77;;;14.38;;
16504;SDS011;8365;51.030;4.696;2023-06-10T04:37:35;16.25;;;14.65;;
16504;SDS011;8365;51.030;4.696;2023-06-10T04:40:08;15.88;;;14.60;;
16504;SDS011;8365;51.030;4.696;2023-06-10T04:42:39;16.55;;;15.05;;
16504;SDS011;8365;51.030;4.696;2023-06-10T04:45:10;15.90;;;14.40;;
16504;SDS011;8365;51.030;4.696;2023-06-10T04:47:41;15.35;;;13.95;;
16504;SDS011;8365;51.030;4.696;2023-06-10T04:50:11;16.80;;;15.32;;
16504;SDS011;8365;51.030;4.696;2023-06-10T04:52:44;16.30;;;14.63;;
16504;SDS011;8365;51.030;4.696;2023-06-10T04:55:15;15.98;;;14.55;;
16504;SDS011;8365;51.030;4.696;2023-06-10T04:57:46;16.42;;;14.93;;
16504;SDS011;8365;51.030;4.696;2023-06-10T05:00:17;16.83;;;15.35;;
16504;SDS011;8365;51.030;4.696;2023-06-10T05:02:50;16.80;;;15.13;;
16504;SDS011;8365;51.030;4.696;2023-06-10T05:05:21;16.67;;;15.20;;
16504;SDS011;8365;51.030;4.696;2023-06-10T05:07:52;16.08;;;14.77;;
16504;SDS011;8365;51.030;4.696;2023-06-10T05:10:23;15.95;;;14.75;;
16504;SDS011;8365;51.030;4.696;2023-06-10T05:12:56;15.73;;;14.43;;
16504;SDS011;8365;51.030;4.696;2023-06-10T05:15:27;17.05;;;15.40;;
16504;SDS011;8365;51.030;4.696;2023-06-10T05:17:57;16.45;;;15.05;;
16504;SDS011;8365;51.030;4.696;2023-06-10T05:20:32;16.80;;;15.13;;
16504;SDS011;8365;51.030;4.696;2023-06-10T05:23:03;17.70;;;14.93;;
16504;SDS011;8365;51.030;4.696;2023-06-10T05:25:33;16.48;;;14.85;;
16504;SDS011;8365;51.030;4.696;2023-06-10T05:28:04;16.02;;;14.63;;
16504;SDS011;8365;51.030;4.696;2023-06-10T05:30:39;16.52;;;15.13;;
16504;SDS011;8365;51.030;4.696;2023-06-10T05:33:10;16.00;;;14.65;;
16504;SDS011;8365;51.030;4.696;2023-06-10T05:35:40;17.25;;;15.77;;
16504;SDS011;8365;51.030;4.696;2023-06-10T05:38:11;16.92;;;15.43;;
16504;SDS011;8365;51.030;4.696;2023-06-10T05:40:41;16.75;;;15.15;;
16504;SDS011;8365;51.030;4.696;2023-06-10T05:43:12;16.10;;;14.70;;
16504;SDS011;8365;51.030;4.696;2023-06-10T05:45:42;15.63;;;14.23;;
16504;SDS011;8365;51.030;4.696;2023-06-10T05:48:13;15.73;;;14.43;;
16504;SDS011;8365;51.030;4.696;2023-06-10T05:50:43;15.45;;;14.02;;
16504;SDS011;8365;51.030;4.696;2023-06-10T05:53:18;16.35;;;14.90;;
16504;SDS011;8365;51.030;4.696;2023-06-10T05:55:48;15.25;;;13.90;;
16504;SDS011;8365;51.030;4.696;2023-06-10T05:58:19;15.35;;;14.15;;
16504;SDS011;8365;51.030;4.696;2023-06-10T06:00:50;15.70;;;14.18;;
16504;SDS011;8365;51.030;4.696;2023-06-10T06:03:20;15.85;;;14.48;;
16504;SDS011;8365;51.030;4.696;2023-06-10T06:05:51;14.88;;;13.65;;
16504;SDS011;8365;51.030;4.696;2023-06-10T06:08:21;14.77;;;13.52;;
16504;SDS011;8365;51.030;4.696;2023-06-10T06:10:52;15.48;;;14.07;;
16504;SDS011;8365;51.030;4.696;2023-06-10T06:13:22;14.80;;;13.68;;
16504;SDS011;8365;51.030;4.696;2023-06-10T06:15:55;15.95;;;14.38;;
16504;SDS011;8365;51.030;4.696;2023-06-10T06:18:26;14.48;;;13.23;;
16504;SDS011;8365;51.030;4.696;2023-06-10T06:20:56;14.30;;;13.20;;
16504;SDS011;8365;51.030;4.696;2023-06-10T06:23:27;13.45;;;12.45;;
16504;SDS011;8365;51.030;4.696;2023-06-10T06:25:57;14.25;;;13.07;;
16504;SDS011;8365;51.030;4.696;2023-06-10T06:28:27;12.52;;;11.52;;
16504;SDS011;8365;51.030;4.696;2023-06-10T06:30:59;13.57;;;12.45;;
16504;SDS011;8365;51.030;4.696;2023-06-10T06:33:29;14.20;;;12.93;;
16504;SDS011;8365;51.030;4.696;2023-06-10T06:36:00;13.18;;;11.93;;
16504;SDS011;8365;51.030;4.696;2023-06-10T06:38:30;13.70;;;12.43;;
16504;SDS011;8365;51.030;4.696;2023-06-10T06:41:01;12.98;;;11.98;;
16504;SDS011;8365;51.030;4.696;2023-06-10T06:43:33;12.48;;;11.32;;
16504;SDS011;8365;51.030;4.696;2023-06-10T06:46:04;12.63;;;11.55;;
16504;SDS011;8365;51.030;4.696;2023-06-10T06:48:35;11.90;;;11.02;;
16504;SDS011;8365;51.030;4.696;2023-06-10T06:51:05;12.88;;;11.88;;
16504;SDS011;8365;51.030;4.696;2023-06-10T06:53:36;12.82;;;11.63;;
16504;SDS011;8365;51.030;4.696;2023-06-10T06:56:14;11.95;;;10.82;;
16504;SDS011;8365;51.030;4.696;2023-06-10T06:58:44;12.55;;;11.25;;
16504;SDS011;8365;51.030;4.696;2023-06-10T07:01:15;11.73;;;10.65;;
16504;SDS011;8365;51.030;4.696;2023-06-10T07:03:45;11.55;;;10.55;;
16504;SDS011;8365;51.030;4.696;2023-06-10T07:06:16;11.75;;;10.50;;
16504;SDS011;8365;51.030;4.696;2023-06-10T07:08:46;11.93;;;10.98;;
16504;SDS011;8365;51.030;4.696;2023-06-10T07:11:19;11.98;;;10.85;;
16504;SDS011;8365;51.030;4.696;2023-06-10T07:13:50;11.20;;;10.20;;
16504;SDS011;8365;51.030;4.696;2023-06-10T07:16:20;10.95;;;10.05;;
16504;SDS011;8365;51.030;4.696;2023-06-10T07:18:52;11.57;;;10.55;;
16504;SDS011;8365;51.030;4.696;2023-06-10T07:21:23;11.40;;;10.48;;
16504;SDS011;8365;51.030;4.696;2023-06-10T07:23:53;11.13;;;10.13;;
16504;SDS011;8365;51.030;4.696;2023-06-10T07:26:24;11.10;;;10.10;;
16504;SDS011;8365;51.030;4.696;2023-06-10T07:28:55;10.55;;;9.75;;
16504;SDS011;8365;51.030;4.696;2023-06-10T07:31:26;10.20;;;9.30;;
16504;SDS011;8365;51.030;4.696;2023-06-10T07:33:56;10.40;;;9.50;;
16504;SDS011;8365;51.030;4.696;2023-06-10T07:36:27;10.20;;;9.40;;
16504;SDS011;8365;51.030;4.696;2023-06-10T07:38:58;10.88;;;9.77;;
16504;SDS011;8365;51.030;4.696;2023-06-10T07:41:29;10.32;;;9.52;;
16504;SDS011;8365;51.030;4.696;2023-06-10T07:43:59;10.95;;;10.00;;
16504;SDS011;8365;51.030;4.696;2023-06-10T07:46:31;10.80;;;9.82;;
16504;SDS011;8365;51.030;4.696;2023-06-10T07:49:01;10.00;;;9.30;;
16504;SDS011;8365;51.030;4.696;2023-06-10T07:51:32;10.02;;;9.15;;
16504;SDS011;8365;51.030;4.696;2023-06-10T07:54:02;9.98;;;9.07;;
16504;SDS011;8365;51.030;4.696;2023-06-10T07:56:33;9.95;;;9.15;;
16504;SDS011;8365;51.030;4.696;2023-06-10T07:59:03;10.70;;;9.60;;
16504;SDS011;8365;51.030;4.696;2023-06-10T08:01:34;10.13;;;9.35;;
16504;SDS011;8365;51.030;4.696;2023-06-10T08:04:06;9.93;;;9.07;;
16504;SDS011;8365;51.030;4.696;2023-06-10T08:06:36;9.50;;;8.48;;
16504;SDS011;8365;51.030;4.696;2023-06-10T08:09:07;9.80;;;9.00;;
16504;SDS011;8365;51.030;4.696;2023-06-10T08:11:37;9.70;;;8.80;;
16504;SDS011;8365;51.030;4.696;2023-06-10T08:14:08;9.57;;;8.75;;
16504;SDS011;8365;51.030;4.696;2023-06-10T08:16:38;9.75;;;8.85;;
16504;SDS011;8365;51.030;4.696;2023-06-10T08:19:09;12.25;;;9.52;;
16504;SDS011;8365;51.030;4.696;2023-06-10T08:21:39;10.10;;;9.30;;
16504;SDS011;8365;51.030;4.696;2023-06-10T08:24:10;9.73;;;8.93;;
16504;SDS011;8365;51.030;4.696;2023-06-10T08:26:40;9.75;;;8.90;;
16504;SDS011;8365;51.030;4.696;2023-06-10T08:29:11;9.10;;;8.25;;
16504;SDS011;8365;51.030;4.696;2023-06-10T08:31:43;9.75;;;8.95;;
16504;SDS011;8365;51.030;4.696;2023-06-10T08:34:14;9.10;;;8.20;;
16504;SDS011;8365;51.030;4.696;2023-06-10T08:36:44;9.45;;;8.75;;
16504;SDS011;8365;51.030;4.696;2023-06-10T08:39:15;8.68;;;8.07;;
16504;SDS011;8365;51.030;4.696;2023-06-10T08:41:54;9.02;;;8.30;;
16504;SDS011;8365;51.030;4.696;2023-06-10T08:44:51;9.52;;;8.60;;
16504;SDS011;8365;51.030;4.696;2023-06-10T08:47:25;9.43;;;8.63;;
16504;SDS011;8365;51.030;4.696;2023-06-10T08:50:01;8.93;;;8.27;;
16504;SDS011;8365;51.030;4.696;2023-06-10T08:52:35;9.57;;;8.77;;
16504;SDS011;8365;51.030;4.696;2023-06-10T08:55:10;8.73;;;8.02;;
16504;SDS011;8365;51.030;4.696;2023-06-10T08:57:44;9.63;;;8.73;;
16504;SDS011;8365;51.030;4.696;2023-06-10T09:00:15;9.23;;;8.27;;
16504;SDS011;8365;51.030;4.696;2023-06-10T09:02:46;9.50;;;8.70;;
16504;SDS011;8365;51.030;4.696;2023-06-10T09:05:17;9.35;;;8.50;;
16504;SDS011;8365;51.030;4.696;2023-06-10T09:07:48;8.73;;;8.02;;
16504;SDS011;8365;51.030;4.696;2023-06-10T09:10:19;9.70;;;8.80;;
16504;SDS011;8365;51.030;4.696;2023-06-10T09:12:49;9.90;;;9.10;;
16504;SDS011;8365;51.030;4.696;2023-06-10T09:15:22;9.85;;;8.93;;
16504;SDS011;8365;51.030;4.696;2023-06-10T09:17:53;9.63;;;8.90;;
16504;SDS011;8365;51.030;4.696;2023-06-10T09:20:23;9.18;;;8.48;;
16504;SDS011;8365;51.030;4.696;2023-06-10T09:22:56;9.82;;;8.98;;
16504;SDS011;8365;51.030;4.696;2023-06-10T09:25:36;9.40;;;8.60;;
16504;SDS011;8365;51.030;4.696;2023-06-10T09:28:14;9.70;;;8.82;;
16504;SDS011;8365;51.030;4.696;2023-06-10T09:30:45;9.85;;;9.02;;
16504;SDS011;8365;51.030;4.696;2023-06-10T09:33:16;9.70;;;8.90;;
16504;SDS011;8365;51.030;4.696;2023-06-10T09:35:47;10.45;;;9.32;;
16504;SDS011;8365;51.030;4.696;2023-06-10T09:38:19;9.02;;;8.32;;
16504;SDS011;8365;51.030;4.696;2023-06-10T09:40:52;9.88;;;8.43;;
16504;SDS011;8365;51.030;4.696;2023-06-10T09:43:40;9.18;;;8.50;;
16504;SDS011;8365;51.030;4.696;2023-06-10T09:46:18;9.85;;;8.80;;
16504;SDS011;8365;51.030;4.696;2023-06-10T09:48:49;9.30;;;8.60;;
16504;SDS011;8365;51.030;4.696;2023-06-10T09:51:20;8.95;;;8.23;;
16504;SDS011;8365;51.030;4.696;2023-06-10T09:53:52;9.63;;;8.75;;
16504;SDS011;8365;51.030;4.696;2023-06-10T09:56:32;9.25;;;8.32;;
16504;SDS011;8365;51.030;4.696;2023-06-10T09:59:04;9.57;;;8.68;;
16504;SDS011;8365;51.030;4.696;2023-06-10T10:01:36;8.68;;;7.90;;
16504;SDS011;8365;51.030;4.696;2023-06-10T10:04:06;9.27;;;8.38;;
16504;SDS011;8365;51.030;4.696;2023-06-10T10:06:37;8.73;;;7.93;;
16504;SDS011;8365;51.030;4.696;2023-06-10T10:09:08;8.90;;;7.93;;
16504;SDS011;8365;51.030;4.696;2023-06-10T10:11:39;8.55;;;7.75;;
16504;SDS011;8365;51.030;4.696;2023-06-10T10:14:12;8.90;;;8.25;;
16504;SDS011;8365;51.030;4.696;2023-06-10T10:16:43;9.40;;;8.43;;
16504;SDS011;8365;51.030;4.696;2023-06-10T10:19:28;9.05;;;8.32;;
16504;SDS011;8365;51.030;4.696;2023-06-10T10:22:01;8.93;;;7.93;;
16504;SDS011;8365;51.030;4.696;2023-06-10T10:24:42;7.95;;;7.35;;
16504;SDS011;8365;51.030;4.696;2023-06-10T10:27:21;8.85;;;8.05;;
16504;SDS011;8365;51.030;4.696;2023-06-10T10:29:58;7.88;;;7.32;;
16504;SDS011;8365;51.030;4.696;2023-06-10T10:32:33;8.23;;;7.45;;
16504;SDS011;8365;51.030;4.696;2023-06-10T10:35:08;8.25;;;7.45;;
16504;SDS011;8365;51.030;4.696;2023-06-10T10:37:54;7.80;;;7.10;;
16504;SDS011;8365;51.030;4.696;2023-06-10T10:40:25;8.75;;;8.02;;
16504;SDS011;8365;51.030;4.696;2023-06-10T10:42:59;7.88;;;7.10;;
16504;SDS011;8365;51.030;4.696;2023-06-10T10:45:30;9.98;;;7.85;;
16504;SDS011;8365;51.030;4.696;2023-06-10T10:48:10;7.80;;;7.10;;
16504;SDS011;8365;51.030;4.696;2023-06-10T10:50:41;7.03;;;6.53;;
16504;SDS011;8365;51.030;4.696;2023-06-10T10:53:12;7.65;;;7.05;;
16504;SDS011;8365;51.030;4.696;2023-06-10T10:59:03;7.57;;;6.68;;
16504;SDS011;8365;51.030;4.696;2023-06-10T11:01:41;9.38;;;6.78;;
16504;SDS011;8365;51.030;4.696;2023-06-10T11:04:17;7.93;;;7.13;;
16504;SDS011;8365;51.030;4.696;2023-06-10T11:06:58;7.45;;;6.78;;
16504;SDS011;8365;51.030;4.696;2023-06-10T11:09:36;7.63;;;6.93;;
16504;SDS011;8365;51.030;4.696;2023-06-10T11:12:07;7.32;;;6.63;;
16504;SDS011;8365;51.030;4.696;2023-06-10T11:14:54;7.82;;;7.03;;
16504;SDS011;8365;51.030;4.696;2023-06-10T11:17:25;9.10;;;7.60;;
16504;SDS011;8365;51.030;4.696;2023-06-10T11:19:56;7.60;;;7.10;;
16504;SDS011;8365;51.030;4.696;2023-06-10T11:22:28;8.15;;;7.50;;
16504;SDS011;8365;51.030;4.696;2023-06-10T11:24:59;8.13;;;7.32;;
16504;SDS011;8365;51.030;4.696;2023-06-10T11:27:32;8.35;;;7.63;;
16504;SDS011;8365;51.030;4.696;2023-06-10T11:30:18;8.10;;;7.50;;
16504;SDS011;8365;51.030;4.696;2023-06-10T11:32:50;8.23;;;7.55;;
16504;SDS011;8365;51.030;4.696;2023-06-10T11:35:23;8.13;;;7.43;;
16504;SDS011;8365;51.030;4.696;2023-06-10T11:37:54;8.27;;;7.47;;
16504;SDS011;8365;51.030;4.696;2023-06-10T11:40:24;7.80;;;7.00;;
16504;SDS011;8365;51.030;4.696;2023-06-10T11:42:58;8.90;;;7.55;;
16504;SDS011;8365;51.030;4.696;2023-06-10T11:45:29;12.40;;;7.68;;
16504;SDS011;8365;51.030;4.696;2023-06-10T11:47:59;8.60;;;7.80;;
16504;SDS011;8365;51.030;4.696;2023-06-10T11:50:33;9.07;;;7.45;;
16504;SDS011;8365;51.030;4.696;2023-06-10T11:53:04;7.90;;;7.20;;
16504;SDS011;8365;51.030;4.696;2023-06-10T11:55:44;7.82;;;7.32;;
16504;SDS011;8365;51.030;4.696;2023-06-10T11:58:21;7.95;;;7.15;;
16504;SDS011;8365;51.030;4.696;2023-06-10T12:00:53;8.85;;;7.57;;
16504;SDS011;8365;51.030;4.696;2023-06-10T12:03:26;7.65;;;7.05;;
16504;SDS011;8365;51.030;4.696;2023-06-10T12:06:05;7.32;;;6.82;;
16504;SDS011;8365;51.030;4.696;2023-06-10T12:08:41;8.07;;;7.38;;
16504;SDS011;8365;51.030;4.696;2023-06-10T12:11:12;7.63;;;6.90;;
16504;SDS011;8365;51.030;4.696;2023-06-10T12:13:46;8.45;;;7.65;;
16504;SDS011;8365;51.030;4.696;2023-06-10T12:16:19;7.68;;;7.07;;
16504;SDS011;8365;51.030;4.696;2023-06-10T12:18:49;8.02;;;7.35;;
16504;SDS011;8365;51.030;4.696;2023-06-10T12:21:23;8.45;;;7.30;;
16504;SDS011;8365;51.030;4.696;2023-06-10T12:24:08;7.85;;;7.15;;
16504;SDS011;8365;51.030;4.696;2023-06-10T12:26:41;7.82;;;7.07;;
16504;SDS011;8365;51.030;4.696;2023-06-10T12:31:55;8.15;;;7.50;;
16504;SDS011;8365;51.030;4.696;2023-06-10T12:34:37;8.10;;;6.85;;
16504;SDS011;8365;51.030;4.696;2023-06-10T12:37:12;7.57;;;6.93;;
16504;SDS011;8365;51.030;4.696;2023-06-10T12:39:50;7.95;;;6.80;;
16504;SDS011;8365;51.030;4.696;2023-06-10T12:42:23;7.68;;;6.88;;
16504;SDS011;8365;51.030;4.696;2023-06-10T12:44:54;8.75;;;6.45;;
16504;SDS011;8365;51.030;4.696;2023-06-10T12:47:30;7.50;;;6.88;;
16504;SDS011;8365;51.030;4.696;2023-06-10T12:50:05;9.18;;;6.75;;
16504;SDS011;8365;51.030;4.696;2023-06-10T12:52:36;8.38;;;6.90;;
16504;SDS011;8365;51.030;4.696;2023-06-10T12:55:07;7.88;;;7.05;;
16504;SDS011;8365;51.030;4.696;2023-06-10T12:57:46;7.65;;;6.90;;
16504;SDS011;8365;51.030;4.696;2023-06-10T13:00:18;7.13;;;6.63;;
16504;SDS011;8365;51.030;4.696;2023-06-10T13:02:48;7.40;;;6.90;;
16504;SDS011;8365;51.030;4.696;2023-06-10T13:05:20;7.72;;;6.85;;
16504;SDS011;8365;51.030;4.696;2023-06-10T13:07:53;7.43;;;6.75;;
16504;SDS011;8365;51.030;4.696;2023-06-10T13:10:26;7.90;;;7.13;;
16504;SDS011;8365;51.030;4.696;2023-06-10T13:12:57;8.25;;;7.43;;
16504;SDS011;8365;51.030;4.696;2023-06-10T13:15:28;8.10;;;6.80;;
16504;SDS011;8365;51.030;4.696;2023-06-10T13:17:58;7.80;;;7.20;;
16504;SDS011;8365;51.030;4.696;2023-06-10T13:20:29;7.60;;;6.95;;
16504;SDS011;8365;51.030;4.696;2023-06-10T13:23:00;7.80;;;7.25;;
16504;SDS011;8365;51.030;4.696;2023-06-10T13:25:31;7.90;;;7.20;;
16504;SDS011;8365;51.030;4.696;2023-06-10T13:28:02;12.10;;;7.25;;
16504;SDS011;8365;51.030;4.696;2023-06-10T13:30:33;8.38;;;7.35;;
16504;SDS011;8365;51.030;4.696;2023-06-10T13:33:03;7.05;;;6.55;;
16504;SDS011;8365;51.030;4.696;2023-06-10T13:35:34;7.70;;;6.95;;
16504;SDS011;8365;51.030;4.696;2023-06-10T13:38:04;7.55;;;6.95;;
16504;SDS011;8365;51.030;4.696;2023-06-10T13:40:35;8.57;;;7.00;;
16504;SDS011;8365;51.030;4.696;2023-06-10T13:43:05;7.70;;;6.85;;
16504;SDS011;8365;51.030;4.696;2023-06-10T13:45:36;7.80;;;7.20;;
16504;SDS011;8365;51.030;4.696;2023-06-10T13:48:06;7.53;;;6.88;;
16504;SDS011;8365;51.030;4.696;2023-06-10T13:50:37;7.65;;;6.63;;
16504;SDS011;8365;51.030;4.696;2023-06-10T13:53:08;7.72;;;7.10;;
16504;SDS011;8365;51.030;4.696;2023-06-10T13:55:38;7.47;;;6.70;;
16504;SDS011;8365;51.030;4.696;2023-06-10T13:58:09;7.60;;;6.93;;
16504;SDS011;8365;51.030;4.696;2023-06-10T14:00:39;7.45;;;6.78;;
16504;SDS011;8365;51.030;4.696;2023-06-10T14:03:10;7.47;;;6.78;;
16504;SDS011;8365;51.030;4.696;2023-06-10T14:05:40;7.32;;;6.60;;
16504;SDS011;8365;51.030;4.696;2023-06-10T14:08:11;8.10;;;7.45;;
16504;SDS011;8365;51.030;4.696;2023-06-10T14:10:42;7.93;;;7.13;;
16504;SDS011;8365;51.030;4.696;2023-06-10T14:13:12;7.13;;;6.63;;
16504;SDS011;8365;51.030;4.696;2023-06-10T14:15:43;6.95;;;6.35;;
16504;SDS011;8365;51.030;4.696;2023-06-10T14:18:14;7.03;;;6.43;;
16504;SDS011;8365;51.030;4.696;2023-06-10T14:20:44;7.07;;;6.47;;
16504;SDS011;8365;51.030;4.696;2023-06-10T14:23:14;7.43;;;6.95;;
16504;SDS011;8365;51.030;4.696;2023-06-10T14:25:45;9.52;;;6.90;;
16504;SDS011;8365;51.030;4.696;2023-06-10T14:28:15;8.00;;;6.78;;
16504;SDS011;8365;51.030;4.696;2023-06-10T14:30:48;7.57;;;6.95;;
16504;SDS011;8365;51.030;4.696;2023-06-10T14:33:18;7.30;;;6.60;;
16504;SDS011;8365;51.030;4.696;2023-06-10T14:35:49;7.55;;;6.78;;
16504;SDS011;8365;51.030;4.696;2023-06-10T14:38:20;7.38;;;6.68;;
16504;SDS011;8365;51.030;4.696;2023-06-10T14:40:50;7.47;;;6.93;;
16504;SDS011;8365;51.030;4.696;2023-06-10T14:43:22;8.07;;;7.45;;
16504;SDS011;8365;51.030;4.696;2023-06-10T14:45:54;6.50;;;6.10;;
16504;SDS011;8365;51.030;4.696;2023-06-10T14:48:27;7.20;;;6.60;;
16504;SDS011;8365;51.030;4.696;2023-06-10T14:50:58;12.73;;;6.80;;
16504;SDS011;8365;51.030;4.696;2023-06-10T14:53:29;7.47;;;6.65;;
16504;SDS011;8365;51.030;4.696;2023-06-10T14:55:59;7.28;;;6.68;;
16504;SDS011;8365;51.030;4.696;2023-06-10T14:58:30;7.40;;;6.70;;
16504;SDS011;8365;51.030;4.696;2023-06-10T15:01:00;6.82;;;6.32;;
16504;SDS011;8365;51.030;4.696;2023-06-10T15:03:30;7.65;;;6.90;;
16504;SDS011;8365;51.030;4.696;2023-06-10T15:06:01;7.00;;;6.50;;
16504;SDS011;8365;51.030;4.696;2023-06-10T15:08:33;6.78;;;6.28;;
16504;SDS011;8365;51.030;4.696;2023-06-10T15:11:06;8.52;;;6.57;;
16504;SDS011;8365;51.030;4.696;2023-06-10T15:13:36;9.82;;;6.68;;
16504;SDS011;8365;51.030;4.696;2023-06-10T15:16:07;6.22;;;5.72;;
16504;SDS011;8365;51.030;4.696;2023-06-10T15:18:37;6.95;;;6.25;;
16504;SDS011;8365;51.030;4.696;2023-06-10T15:21:08;7.00;;;6.30;;
16504;SDS011;8365;51.030;4.696;2023-06-10T15:23:38;6.80;;;6.20;;
16504;SDS011;8365;51.030;4.696;2023-06-10T15:26:12;6.65;;;6.07;;